createdAt,value
2018-07-27T00:02:02.630Z,100702.72
2018-07-27T00:04:31.120Z,100699.31
2018-07-27T00:07:00.004Z,100701.41
2018-07-27T00:09:28.655Z,100704.37
2018-07-27T00:11:57.451Z,100705.63
2018-07-27T00:14:26.245Z,100698.30
2018-07-27T00:16:54.876Z,100700.63
2018-07-27T00:19:23.358Z,100700.75
2018-07-27T00:21:51.964Z,100703.59
2018-07-27T00:24:20.436Z,100702.36
2018-07-27T00:26:48.869Z,100702.48
2018-07-27T00:29:17.315Z,100698.59
2018-07-27T00:31:45.778Z,100703.26
2018-07-27T00:34:14.306Z,100695.31
2018-07-27T00:36:43.059Z,100698.12
2018-07-27T00:39:11.584Z,100695.66
2018-07-27T00:41:41.239Z,100692.38
2018-07-27T00:44:09.767Z,100696.67
2018-07-27T00:46:38.211Z,100694.61
2018-07-27T00:49:06.830Z,100690.70
2018-07-27T00:51:35.448Z,100689.62
2018-07-27T00:54:04.053Z,100690.27
2018-07-27T00:56:32.684Z,100694.05
2018-07-27T00:59:01.513Z,100691.36
2018-07-27T01:01:30.126Z,100695.75
2018-07-27T01:03:58.566Z,100687.84
2018-07-27T01:06:27.028Z,100688.08
2018-07-27T01:08:55.728Z,100690.76
2018-07-27T01:11:24.234Z,100692.36
2018-07-27T01:13:52.696Z,100692.48
2018-07-27T01:16:21.388Z,100691.76
2018-07-27T01:18:49.943Z,100691.41
2018-07-27T01:21:18.422Z,100693.84
2018-07-27T01:23:47.095Z,100690.08
2018-07-27T01:26:15.560Z,100687.77
2018-07-27T01:28:45.073Z,100683.13
2018-07-27T01:31:13.680Z,100684.98
2018-07-27T01:33:42.272Z,100682.92
2018-07-27T01:36:10.901Z,100678.28
2018-07-27T01:38:39.347Z,100684.75
2018-07-27T01:41:08.576Z,100676.05
2018-07-27T01:43:37.009Z,100674.72
2018-07-27T01:46:05.445Z,100670.74
2018-07-27T01:48:33.906Z,100670.61
2018-07-27T01:51:02.590Z,100675.14
2018-07-27T01:53:31.315Z,100670.75
2018-07-27T01:55:59.879Z,100668.80
2018-07-27T01:58:28.519Z,100672.47
2018-07-27T02:00:57.007Z,100668.81
2018-07-27T02:03:25.710Z,100663.08
2018-07-27T02:05:54.398Z,100661.96
2018-07-27T02:08:22.921Z,100665.27
2018-07-27T02:10:51.376Z,100660.64
2018-07-27T02:13:19.811Z,100663.46
2018-07-27T02:15:48.548Z,100658.83
2018-07-27T02:18:17.241Z,100659.44
2018-07-27T02:20:46.032Z,100652.84
2018-07-27T02:23:14.493Z,100654.08
2018-07-27T02:25:43.314Z,100658.94
2018-07-27T02:28:11.944Z,100651.03
2018-07-27T02:30:40.398Z,100655.53
2018-07-27T02:33:09.065Z,100653.36
2018-07-27T02:35:37.810Z,100652.71
2018-07-27T02:38:06.935Z,100651.26
2018-07-27T02:40:35.362Z,100652.70
2018-07-27T02:43:03.926Z,100654.16
2018-07-27T02:45:33.109Z,100650.02
2018-07-27T02:48:01.874Z,100656.11
2018-07-27T02:50:30.656Z,100653.31
2018-07-27T02:52:59.090Z,100650.01
2018-07-27T02:55:27.577Z,100645.00
2018-07-27T02:57:56.036Z,100649.02
2018-07-27T03:00:24.506Z,100647.58
2018-07-27T03:02:53.563Z,100644.78
2018-07-27T03:05:22.004Z,100648.05
2018-07-27T03:07:50.702Z,100640.14
2018-07-27T03:10:19.155Z,100642.09
2018-07-27T03:12:47.738Z,100643.28
2018-07-27T03:15:17.052Z,100645.48
2018-07-27T03:17:45.654Z,100642.66
2018-07-27T03:20:14.168Z,100638.01
2018-07-27T03:22:43.082Z,100641.55
2018-07-27T03:25:11.781Z,100636.41
2018-07-27T03:27:40.705Z,100637.63
2018-07-27T03:30:09.736Z,100637.84
2018-07-27T03:32:38.247Z,100637.62
2018-07-27T03:35:07.162Z,100630.55
2018-07-27T03:37:36.133Z,100633.70
2018-07-27T03:40:06.084Z,100634.31
2018-07-27T03:42:34.934Z,100628.23
2018-07-27T03:45:03.916Z,100627.86
2018-07-27T03:47:32.524Z,100634.16
2018-07-27T03:50:01.612Z,100638.17
2018-07-27T03:52:30.947Z,100630.28
2018-07-27T03:54:59.933Z,100632.33
2018-07-27T03:57:29.313Z,100637.93
2018-07-27T03:59:58.405Z,100639.64
2018-07-27T04:02:27.653Z,100639.64
2018-07-27T04:04:56.604Z,100633.67
2018-07-27T04:07:26.358Z,100638.41
2018-07-27T04:09:55.394Z,100634.87
2018-07-27T04:12:24.658Z,100644.00
2018-07-27T04:14:54.701Z,100636.59
2018-07-27T04:17:24.653Z,100640.84
2018-07-27T04:19:54.019Z,100645.62
2018-07-27T04:22:23.065Z,100642.44
2018-07-27T04:24:52.553Z,100645.72
2018-07-27T04:27:21.544Z,100646.07
2018-07-27T04:29:50.468Z,100647.91
2018-07-27T04:32:20.215Z,100655.44
2018-07-27T04:34:49.290Z,100650.81
2018-07-27T04:37:18.227Z,100648.30
2018-07-27T04:39:47.089Z,100649.63
2018-07-27T04:42:16.104Z,100650.11
2018-07-27T04:44:45.049Z,100658.14
2018-07-27T04:47:13.959Z,100655.56
2018-07-27T04:49:42.994Z,100659.48
2018-07-27T04:52:12.046Z,100653.28
2018-07-27T04:54:41.267Z,100654.13
2018-07-27T04:57:10.443Z,100652.42
2018-07-27T04:59:39.392Z,100662.66
2018-07-27T05:02:08.145Z,100663.86
2018-07-27T05:04:37.861Z,100662.89
2018-07-27T05:07:06.833Z,100662.55
2018-07-27T05:09:36.426Z,100666.09
2018-07-27T05:12:05.649Z,100660.49
2018-07-27T05:14:34.877Z,100662.20
2018-07-27T05:17:04.132Z,100666.58
2018-07-27T05:19:32.868Z,100653.91
2018-07-27T05:22:02.020Z,100658.07
2018-07-27T05:24:30.887Z,100660.61
2018-07-27T05:26:59.747Z,100654.07
2018-07-27T05:29:34.169Z,100663.20
2018-07-27T05:32:03.065Z,100664.03
2018-07-27T05:34:31.833Z,100661.41
2018-07-27T05:37:00.793Z,100670.80
2018-07-27T05:39:29.538Z,100664.60
2018-07-27T05:41:58.183Z,100665.69
2018-07-27T05:44:27.092Z,100665.82
2018-07-27T05:46:55.955Z,100668.61
2018-07-27T05:49:29.773Z,100668.97
2018-07-27T05:51:58.897Z,100676.40
2018-07-27T05:54:27.537Z,100674.95
2018-07-27T05:56:56.379Z,100673.00
2018-07-27T05:59:25.110Z,100675.08
2018-07-27T06:01:53.762Z,100671.31
2018-07-27T06:04:22.422Z,100673.27
2018-07-27T06:06:51.407Z,100676.55
2018-07-27T06:09:21.618Z,100666.95
2018-07-27T06:11:51.561Z,100668.88
2018-07-27T06:14:20.558Z,100665.01
2018-07-27T06:34:13.201Z,100665.42
2018-07-27T06:36:41.938Z,100666.63
2018-07-27T06:39:11.849Z,100663.94
2018-07-27T06:41:41.241Z,100656.75
2018-07-27T06:44:10.779Z,100661.38
2018-07-27T06:46:39.932Z,100665.25
2018-07-27T06:49:11.098Z,100661.09
2018-07-27T06:51:40.370Z,100657.28
2018-07-27T06:54:09.434Z,100659.39
2018-07-27T06:56:38.239Z,100662.63
2018-07-27T06:59:06.865Z,100660.29
2018-07-27T07:01:35.526Z,100666.52
2018-07-27T07:04:04.369Z,100659.78
2018-07-27T07:06:33.118Z,100657.42
2018-07-27T07:09:02.144Z,100658.86
2018-07-27T07:11:31.053Z,100662.52
2018-07-27T07:14:00.280Z,100668.73
2018-07-27T07:16:29.041Z,100660.64
2018-07-27T07:18:57.769Z,100661.36
2018-07-27T07:21:27.170Z,100663.39
2018-07-27T07:23:56.676Z,100660.67
2018-07-27T07:26:25.766Z,100661.98
2018-07-27T07:28:54.609Z,100664.88
2018-07-27T07:31:23.339Z,100659.94
2018-07-27T07:33:52.142Z,100653.06
2018-07-27T07:36:21.765Z,100649.34
2018-07-27T07:38:51.559Z,100647.33
2018-07-27T07:41:21.258Z,100645.70
2018-07-27T07:43:50.539Z,100649.05
2018-07-27T07:46:19.560Z,100645.84
2018-07-27T07:48:48.542Z,100647.72
2018-07-27T07:51:17.189Z,100644.06
2018-07-27T07:53:46.452Z,100646.06
2018-07-27T07:56:15.415Z,100640.85
2018-07-27T07:58:49.402Z,100646.45
2018-07-27T08:01:18.122Z,100641.48
2018-07-27T08:03:46.937Z,100639.50
2018-07-27T08:06:15.916Z,100636.97
2018-07-27T08:08:44.691Z,100632.73
2018-07-27T08:11:13.574Z,100628.89
2018-07-27T08:13:42.198Z,100625.30
2018-07-27T08:16:11.632Z,100625.93
2018-07-27T08:18:40.252Z,100621.30
2018-07-27T08:21:12.225Z,100629.22
2018-07-27T08:23:41.507Z,100616.89
2018-07-27T08:26:39.058Z,100621.77
2018-07-27T08:29:09.454Z,100620.41
2018-07-27T08:31:39.145Z,100620.02
2018-07-27T08:34:07.939Z,100617.77
2018-07-27T08:36:37.299Z,100616.81
2018-07-27T08:39:10.592Z,100612.89
2018-07-27T08:41:44.687Z,100610.19
2018-07-27T08:44:15.214Z,100607.45
2018-07-27T08:46:44.455Z,100613.97
2018-07-27T08:49:13.611Z,100612.36
2018-07-27T08:51:42.862Z,100612.56
2018-07-27T08:54:12.013Z,100599.84
2018-07-27T08:56:42.543Z,100603.34
2018-07-27T08:59:11.383Z,100601.11
2018-07-27T09:01:40.661Z,100600.07
2018-07-27T09:04:09.718Z,100602.05
2018-07-27T09:06:39.107Z,100604.98
2018-07-27T09:09:10.382Z,100598.88
2018-07-27T09:11:39.656Z,100604.58
2018-07-27T09:14:08.381Z,100590.69
2018-07-27T09:16:37.282Z,100589.56
2018-07-27T09:19:06.057Z,100598.09
2018-07-27T09:21:34.960Z,100585.20
2018-07-27T09:24:04.585Z,100584.72
2018-07-27T09:26:33.739Z,100586.20
2018-07-27T09:29:02.796Z,100589.64
2018-07-27T09:31:31.920Z,100580.05
2018-07-27T09:34:01.035Z,100582.51
2018-07-27T09:36:30.757Z,100584.75
2018-07-27T09:38:59.760Z,100573.97
2018-07-27T09:41:28.854Z,100574.53
2018-07-27T09:43:57.705Z,100579.20
2018-07-27T09:46:27.128Z,100576.17
2018-07-27T09:48:56.245Z,100570.75
2018-07-27T09:51:25.719Z,100575.16
2018-07-27T09:53:55.182Z,100566.21
2018-07-27T09:56:24.537Z,100571.31
2018-07-27T09:58:53.458Z,100563.38
2018-07-27T10:01:23.322Z,100565.41
2018-07-27T10:03:53.351Z,100559.66
2018-07-27T10:06:22.602Z,100559.64
2018-07-27T10:08:51.731Z,100553.88
2018-07-27T10:11:20.918Z,100561.87
2018-07-27T10:13:50.275Z,100554.58
2018-07-27T10:16:19.341Z,100550.48
2018-07-27T10:18:48.573Z,100545.70
2018-07-27T10:21:17.731Z,100548.22
2018-07-27T10:23:46.559Z,100544.47
2018-07-27T10:26:15.868Z,100543.42
2018-07-27T10:28:45.636Z,100532.59
2018-07-27T10:31:14.702Z,100535.92
2018-07-27T10:33:43.776Z,100541.66
2018-07-27T10:36:17.884Z,100529.91
2018-07-27T10:38:47.171Z,100522.39
2018-07-27T10:41:16.102Z,100531.32
2018-07-27T10:43:45.699Z,100532.94
2018-07-27T10:46:14.830Z,100530.29
2018-07-27T10:48:44.197Z,100520.56
2018-07-27T10:51:13.726Z,100509.62
2018-07-27T10:53:43.218Z,100515.13
2018-07-27T10:56:12.759Z,100510.66
2018-07-27T10:58:42.013Z,100508.25
2018-07-27T11:01:11.040Z,100512.31
2018-07-27T11:03:40.206Z,100510.11
2018-07-27T11:06:09.298Z,100496.41
2018-07-27T11:08:38.751Z,100504.52
2018-07-27T11:11:08.418Z,100498.78
2018-07-27T11:13:37.669Z,100497.61
2018-07-27T11:16:06.643Z,100491.36
2018-07-27T11:18:36.292Z,100495.98
2018-07-27T11:21:06.397Z,100485.30
2018-07-27T11:23:35.328Z,100482.36
2018-07-27T11:26:04.632Z,100480.93
2018-07-27T11:28:33.652Z,100478.31
2018-07-27T11:31:03.215Z,100474.72
2018-07-27T11:33:33.391Z,100465.81
2018-07-27T11:36:03.607Z,100459.66
2018-07-27T11:38:33.051Z,100459.48
2018-07-27T11:41:04.127Z,100460.77
2018-07-27T11:43:33.349Z,100453.14
2018-07-27T11:46:02.599Z,100449.32
2018-07-27T11:48:31.852Z,100444.55
2018-07-27T11:51:01.117Z,100452.03
2018-07-27T11:53:30.259Z,100444.63
2018-07-27T11:56:00.063Z,100443.83
2018-07-27T11:58:29.205Z,100440.39
2018-07-27T12:00:58.537Z,100439.03
2018-07-27T12:03:28.387Z,100431.78
2018-07-27T12:05:57.783Z,100434.36
2018-07-27T12:08:27.322Z,100434.75
2018-07-27T12:10:59.731Z,100424.76
2018-07-27T12:13:28.891Z,100428.00
2018-07-27T12:15:58.412Z,100421.33
2018-07-27T12:18:27.635Z,100412.75
2018-07-27T12:20:57.465Z,100413.30
2018-07-27T12:23:26.373Z,100417.02
2018-07-27T12:25:55.091Z,100412.02
2018-07-27T12:28:24.017Z,100406.34
2018-07-27T12:30:53.098Z,100401.92
2018-07-27T12:33:22.199Z,100392.27
2018-07-27T12:35:51.449Z,100397.17
2018-07-27T12:38:20.404Z,100402.83
2018-07-27T12:40:49.220Z,100396.87
2018-07-27T12:43:18.824Z,100391.50
2018-07-27T12:45:47.793Z,100380.77
2018-07-27T12:48:17.105Z,100378.91
2018-07-27T12:50:46.394Z,100374.40
2018-07-27T12:53:15.566Z,100374.97
2018-07-27T12:55:44.722Z,100372.91
2018-07-27T12:58:13.753Z,100372.20
2018-07-27T13:00:43.140Z,100367.88
2018-07-27T13:03:12.441Z,100365.09
2018-07-27T13:05:41.817Z,100361.63
2018-07-27T13:08:10.799Z,100354.06
2018-07-27T13:10:39.836Z,100357.14
2018-07-27T13:13:09.029Z,100344.45
2018-07-27T13:15:38.422Z,100357.88
2018-07-27T13:18:07.615Z,100349.03
2018-07-27T13:20:46.249Z,100343.92
2018-07-27T13:23:15.528Z,100354.18
2018-07-27T13:30:49.467Z,100335.92
2018-07-27T13:33:19.297Z,100330.89
2018-07-27T13:35:48.409Z,100333.36
2018-07-27T13:38:17.169Z,100332.36
2018-07-27T13:40:46.408Z,100326.27
2018-07-27T13:43:15.415Z,100328.00
2018-07-27T13:45:44.227Z,100318.16
2018-07-27T13:48:13.251Z,100315.96
2018-07-27T13:50:42.593Z,100319.64
2018-07-27T13:53:11.721Z,100310.11
2018-07-27T13:55:41.453Z,100316.27
2018-07-27T13:58:14.729Z,100309.62
2018-07-27T14:00:43.762Z,100301.39
2018-07-27T14:03:12.899Z,100299.07
2018-07-27T14:05:41.814Z,100291.70
2018-07-27T14:08:11.230Z,100298.64
2018-07-27T14:10:40.580Z,100285.33
2018-07-27T14:13:10.345Z,100285.05
2018-07-27T14:15:39.480Z,100281.05
2018-07-27T14:18:08.231Z,100279.62
2018-07-27T14:20:37.199Z,100278.84
2018-07-27T14:23:06.201Z,100273.48
2018-07-27T14:25:35.190Z,100269.66
2018-07-27T14:28:03.903Z,100267.16
2018-07-27T14:30:32.612Z,100262.89
2018-07-27T14:33:01.363Z,100264.03
2018-07-27T14:35:30.654Z,100263.51
2018-07-27T14:37:59.340Z,100258.66
2018-07-27T14:40:28.295Z,100262.05
2018-07-27T14:42:57.071Z,100258.48
2018-07-27T14:45:26.736Z,100250.98
2018-07-27T14:47:55.793Z,100249.55
2018-07-27T14:50:24.607Z,100241.57
2018-07-27T14:52:53.856Z,100237.48
2018-07-27T14:55:22.847Z,100239.28
2018-07-27T14:57:51.721Z,100231.03
2018-07-27T15:00:20.795Z,100229.23
2018-07-27T15:02:49.857Z,100231.97
2018-07-27T15:05:19.349Z,100221.38
2018-07-27T15:07:48.331Z,100228.08
2018-07-27T15:10:17.201Z,100231.33
2018-07-27T15:12:46.005Z,100229.80
2018-07-27T15:15:14.958Z,100220.64
2018-07-27T15:17:44.022Z,100212.56
2018-07-27T15:20:13.321Z,100217.63
2018-07-27T15:22:42.568Z,100212.52
2018-07-27T15:25:11.832Z,100210.68
2018-07-27T15:27:41.200Z,100213.30
2018-07-27T15:30:10.018Z,100217.66
2018-07-27T15:32:38.964Z,100210.86
2018-07-27T15:35:08.062Z,100201.09
2018-07-27T15:37:37.159Z,100199.97
2018-07-27T15:40:06.662Z,100200.67
2018-07-27T15:42:35.904Z,100194.95
2018-07-27T15:45:04.777Z,100201.63
2018-07-27T15:47:33.829Z,100198.12
2018-07-27T15:50:05.714Z,100183.98
2018-07-27T15:52:34.302Z,100187.42
2018-07-27T15:55:03.729Z,100184.19
2018-07-27T15:57:32.661Z,100176.66
2018-07-27T16:00:01.573Z,100182.23
2018-07-27T16:02:30.538Z,100174.66
2018-07-27T16:05:00.494Z,100180.15
2018-07-27T16:07:29.307Z,100173.83
2018-07-27T16:09:58.126Z,100165.00
2018-07-27T16:12:27.552Z,100163.00
2018-07-27T16:14:56.713Z,100154.41
2018-07-27T16:17:25.693Z,100158.16
2018-07-27T16:19:54.495Z,100158.31
2018-07-27T16:22:23.146Z,100162.28
2018-07-27T16:24:52.488Z,100154.49
2018-07-27T16:27:21.590Z,100158.17
2018-07-27T16:29:50.531Z,100150.56
2018-07-27T16:32:19.632Z,100152.52
2018-07-27T16:34:48.397Z,100151.02
2018-07-27T16:37:17.157Z,100151.92
2018-07-27T16:39:46.183Z,100146.90
2018-07-27T16:42:14.820Z,100145.78
2018-07-27T16:44:43.628Z,100144.20
2018-07-27T16:47:12.468Z,100148.59
2018-07-27T16:49:47.983Z,100141.86
2018-07-27T16:52:17.035Z,100138.00
2018-07-27T16:54:45.845Z,100133.11
2018-07-27T16:57:17.759Z,100134.73
2018-07-27T16:59:46.588Z,100129.75
2018-07-27T17:02:15.795Z,100139.25
2018-07-27T17:04:44.556Z,100119.27
2018-07-27T17:07:13.700Z,100134.11
2018-07-27T17:09:42.559Z,100127.50
2018-07-27T17:12:11.700Z,100134.95
2018-07-27T17:14:40.691Z,100131.14
2018-07-27T17:17:09.718Z,100131.63
2018-07-27T17:19:38.707Z,100127.84
2018-07-27T17:22:07.774Z,100126.73
2018-07-27T17:24:36.634Z,100116.34
2018-07-27T17:27:05.469Z,100115.58
2018-07-27T17:29:34.624Z,100118.90
2018-07-27T17:32:03.605Z,100116.31
2018-07-27T17:34:32.363Z,100121.30
2018-07-27T17:37:01.481Z,100109.42
2018-07-27T17:39:30.369Z,100108.98
2018-07-27T17:41:59.513Z,100106.34
2018-07-27T17:44:29.256Z,100098.68
2018-07-27T17:46:58.274Z,100099.60
2018-07-27T17:49:26.985Z,100093.39
2018-07-27T17:51:55.893Z,100087.14
2018-07-27T17:54:25.109Z,100091.28
2018-07-27T17:56:53.795Z,100083.25
2018-07-27T17:59:22.460Z,100086.17
2018-07-27T18:01:51.507Z,100079.41
2018-07-27T18:04:20.317Z,100081.23
2018-07-27T18:06:49.004Z,100073.73
2018-07-27T18:09:18.126Z,100075.77
2018-07-27T18:11:47.137Z,100073.31
2018-07-27T18:14:15.773Z,100071.14
2018-07-27T18:16:44.618Z,100074.58
2018-07-27T18:19:13.433Z,100067.45
2018-07-27T18:21:42.256Z,100072.19
2018-07-27T18:24:11.206Z,100074.27
2018-07-27T18:26:40.241Z,100067.33
2018-07-27T18:29:09.151Z,100074.31
2018-07-27T18:31:38.379Z,100075.34
2018-07-27T18:34:07.266Z,100077.64
2018-07-27T18:36:36.192Z,100074.64
2018-07-27T18:39:06.980Z,100074.71
2018-07-27T18:41:36.059Z,100077.83
2018-07-27T18:44:05.136Z,100081.91
2018-07-27T18:46:34.124Z,100088.02
2018-07-27T18:49:03.229Z,100082.75
2018-07-27T18:51:32.182Z,100081.31
2018-07-27T18:54:01.049Z,100083.59
2018-07-27T18:56:30.652Z,100085.04
2018-07-27T18:58:59.321Z,100081.77
2018-07-27T19:01:28.513Z,100080.20
2018-07-27T19:03:57.413Z,100077.25
2018-07-27T19:06:26.033Z,100080.56
2018-07-27T19:08:54.839Z,100083.19
2018-07-27T19:11:24.304Z,100082.27
2018-07-27T19:13:53.398Z,100082.55
2018-07-27T19:16:22.694Z,100079.78
2018-07-27T19:18:51.679Z,100076.11
2018-07-27T19:21:25.600Z,100080.34
2018-07-27T19:23:55.367Z,100076.62
2018-07-27T19:26:24.555Z,100074.83
2018-07-27T19:28:53.673Z,100073.41
2018-07-27T19:31:22.503Z,100082.09
2018-07-27T19:33:51.188Z,100082.78
2018-07-27T19:36:20.140Z,100078.44
2018-07-27T19:38:48.826Z,100082.17
2018-07-27T19:41:17.725Z,100083.53
2018-07-27T19:43:52.085Z,100084.23
2018-07-27T19:46:21.040Z,100094.58
2018-07-27T19:48:49.839Z,100090.52
2018-07-27T19:51:18.467Z,100085.64
2018-07-27T19:53:47.073Z,100093.28
2018-07-27T19:56:15.633Z,100090.44
2018-07-27T19:58:50.872Z,100088.66
2018-07-27T20:01:19.584Z,100094.44
2018-07-27T20:03:48.028Z,100095.66
2018-07-27T20:06:17.167Z,100090.44
2018-07-27T20:08:45.657Z,100092.85
2018-07-27T20:11:14.230Z,100102.63
2018-07-27T20:13:42.761Z,100103.38
2018-07-27T20:16:11.406Z,100100.52
2018-07-27T20:18:39.823Z,100095.31
2018-07-27T20:21:12.048Z,100092.63
2018-07-27T20:23:40.623Z,100088.77
2018-07-27T20:26:09.285Z,100092.98
2018-07-27T20:28:41.100Z,100094.69
2018-07-27T20:31:09.551Z,100093.51
2018-07-27T20:33:38.248Z,100092.17
2018-07-27T20:36:06.732Z,100098.78
2018-07-27T20:38:35.668Z,100095.55
2018-07-27T20:41:04.352Z,100090.66
2018-07-27T20:43:33.333Z,100084.56
2018-07-27T20:46:01.792Z,100087.92
2018-07-27T20:48:30.369Z,100086.07
2018-07-27T20:50:58.807Z,100088.60
2018-07-27T20:53:27.262Z,100088.77
2018-07-27T20:55:55.706Z,100082.00
2018-07-27T20:58:24.196Z,100087.04
2018-07-27T21:00:52.825Z,100079.62
2018-07-27T21:03:21.315Z,100073.48
2018-07-27T21:05:49.781Z,100074.31
2018-07-27T21:08:18.385Z,100075.33
2018-07-27T21:10:47.071Z,100073.28
2018-07-27T21:13:15.632Z,100079.84
2018-07-27T21:15:44.113Z,100072.76
2018-07-27T21:18:13.724Z,100072.38
2018-07-27T21:20:42.267Z,100073.39
2018-07-27T21:23:10.684Z,100076.91
2018-07-27T21:25:43.443Z,100072.13
2018-07-27T21:28:11.920Z,100076.84
2018-07-27T21:30:40.374Z,100079.00
2018-07-27T21:33:08.776Z,100069.84
2018-07-27T21:35:41.508Z,100071.34
2018-07-27T21:38:10.684Z,100073.69
2018-07-27T21:40:39.209Z,100067.76
2018-07-27T21:43:07.596Z,100073.14
2018-07-27T21:45:37.016Z,100071.27
2018-07-27T21:48:05.764Z,100058.59
2018-07-27T21:50:34.841Z,100062.97
2018-07-27T21:53:03.456Z,100057.71
2018-07-27T21:55:32.880Z,100059.64
2018-07-27T21:58:01.438Z,100058.11
2018-07-27T22:00:32.870Z,100055.05
2018-07-27T22:03:02.401Z,100047.78
2018-07-27T22:05:30.980Z,100039.67
2018-07-27T22:07:59.665Z,100037.59
2018-07-27T22:10:28.282Z,100044.66
2018-07-27T22:12:57.513Z,100042.29
2018-07-27T22:15:26.829Z,100036.22
2018-07-27T22:17:55.303Z,100031.49
2018-07-27T22:20:24.800Z,100035.69
2018-07-27T22:22:53.525Z,100024.75
2018-07-27T22:25:22.301Z,100026.59
2018-07-27T22:27:50.783Z,100036.88
2018-07-27T22:30:19.301Z,100037.86
2018-07-27T22:32:47.786Z,100033.31
2018-07-27T22:35:16.284Z,100036.30
2018-07-27T22:37:44.752Z,100047.94
2018-07-27T22:40:14.071Z,100041.69
2018-07-27T22:42:42.582Z,100032.75
2018-07-27T22:45:11.353Z,100036.59
2018-07-27T22:47:40.712Z,100037.06
2018-07-27T22:50:09.349Z,100036.34
2018-07-27T22:52:40.914Z,100034.46
2018-07-27T22:55:12.612Z,100028.17
2018-07-27T22:57:42.738Z,100028.23
2018-07-27T23:00:13.435Z,100031.59
2018-07-27T23:02:42.565Z,100031.05
2018-07-27T23:05:11.751Z,100026.30
2018-07-27T23:07:41.306Z,100020.36
2018-07-27T23:10:10.885Z,100021.51
2018-07-27T23:12:39.890Z,100019.66
2018-07-27T23:15:11.544Z,100015.61
2018-07-27T23:17:40.095Z,100011.34
2018-07-27T23:20:11.174Z,100006.42
2018-07-27T23:22:39.616Z,100013.37
2018-07-27T23:25:08.628Z,100010.24
2018-07-27T23:27:37.949Z,100011.70
2018-07-27T23:30:08.901Z,100009.31
2018-07-27T23:32:37.609Z,100012.32
2018-07-27T23:35:06.953Z,100011.80
2018-07-27T23:37:35.741Z,100008.59
2018-07-27T23:40:04.912Z,100002.84
2018-07-27T23:42:33.629Z,100001.66
2018-07-27T23:45:02.393Z,99998.08
2018-07-27T23:47:31.000Z,99995.15
2018-07-27T23:49:59.416Z,99997.63
2018-07-27T23:52:28.029Z,100002.02
2018-07-27T23:54:56.531Z,100004.25
2018-07-27T23:57:25.848Z,100006.95
2018-07-27T23:59:54.306Z,100039.73
